KFET/FET METAR and TAF weather

Enter ICAO airport designator
Station Type Date Time Source
KFET METAR 2020/09/30 14:35 UTC NOAA

KFET 301435Z AUTO 32017G25KT 10SM CLR 17/04 A2998 RMK AO2 T01740038


Station Type Date Time Source
KFET Decoded METAR 2020/09/30 14:35 UTC NOAA

Fremont Municipal Airport, NE, United States (KFET) 41-27N 096-31W
Sep 30, 2020 - 10:35 AM EDT / 2020.09.30 1435 UTC
Wind: from the NW (320 degrees) at 20 MPH (17 KT) gusting to 29 MPH (25 KT):0
Visibility: 10 mile(s):0
Sky conditions: clear
Temperature: 63.3 F (17.4 C)
Dew Point: 38.8 F (3.8 C)
Relative Humidity: 40%
Pressure (altimeter): 29.98 in. Hg (1015 hPa)
ob: KFET 301435Z AUTO 32017G25KT 10SM CLR 17/04 A2998 RMK AO2 T01740038
cycle: 14

Station Type Date Time Source
KFET TAF UTC NOAA

Error!

Example: see airport list